sensor_id;sensor_type;location;lat;lon;timestamp;P1;durP1;ratioP1;P2;durP2;ratioP2
23044;SDS011;11690;51.716;23.066;2022-08-18T00:01:08;23.95;;;13.43;;
23044;SDS011;11690;51.716;23.066;2022-08-18T00:03:40;18.25;;;13.18;;
23044;SDS011;11690;51.716;23.066;2022-08-18T00:06:22;18.67;;;13.27;;
23044;SDS011;11690;51.716;23.066;2022-08-18T00:08:54;21.83;;;12.57;;
23044;SDS011;11690;51.716;23.066;2022-08-18T00:11:21;18.45;;;12.57;;
23044;SDS011;11690;51.716;23.066;2022-08-18T00:13:49;20.40;;;12.70;;
23044;SDS011;11690;51.716;23.066;2022-08-18T00:16:16;15.55;;;12.88;;
23044;SDS011;11690;51.716;23.066;2022-08-18T00:18:43;15.73;;;13.65;;
23044;SDS011;11690;51.716;23.066;2022-08-18T00:21:10;16.95;;;13.93;;
23044;SDS011;11690;51.716;23.066;2022-08-18T00:23:37;17.10;;;13.65;;
23044;SDS011;11690;51.716;23.066;2022-08-18T00:26:04;20.20;;;14.23;;
23044;SDS011;11690;51.716;23.066;2022-08-18T00:28:31;16.55;;;14.80;;
23044;SDS011;11690;51.716;23.066;2022-08-18T00:30:58;19.42;;;15.50;;
23044;SDS011;11690;51.716;23.066;2022-08-18T00:33:25;20.35;;;14.60;;
23044;SDS011;11690;51.716;23.066;2022-08-18T00:35:53;20.40;;;13.93;;
23044;SDS011;11690;51.716;23.066;2022-08-18T00:38:20;18.17;;;13.23;;
23044;SDS011;11690;51.716;23.066;2022-08-18T00:40:51;16.60;;;13.15;;
23044;SDS011;11690;51.716;23.066;2022-08-18T00:43:41;19.27;;;13.52;;
23044;SDS011;11690;51.716;23.066;2022-08-18T00:46:15;16.40;;;11.77;;
23044;SDS011;11690;51.716;23.066;2022-08-18T00:48:53;13.73;;;11.80;;
23044;SDS011;11690;51.716;23.066;2022-08-18T00:53:50;20.85;;;14.15;;
23044;SDS011;11690;51.716;23.066;2022-08-18T00:56:25;18.55;;;13.77;;
23044;SDS011;11690;51.716;23.066;2022-08-18T00:58:56;18.17;;;13.73;;
23044;SDS011;11690;51.716;23.066;2022-08-18T01:01:27;19.83;;;13.60;;
23044;SDS011;11690;51.716;23.066;2022-08-18T01:04:02;22.45;;;13.95;;
23044;SDS011;11690;51.716;23.066;2022-08-18T01:06:37;22.52;;;14.85;;
23044;SDS011;11690;51.716;23.066;2022-08-18T01:09:07;21.50;;;14.35;;
23044;SDS011;11690;51.716;23.066;2022-08-18T01:11:35;18.40;;;13.40;;
23044;SDS011;11690;51.716;23.066;2022-08-18T01:14:04;19.33;;;12.95;;
23044;SDS011;11690;51.716;23.066;2022-08-18T01:16:33;20.45;;;13.00;;
23044;SDS011;11690;51.716;23.066;2022-08-18T01:19:23;19.73;;;13.88;;
23044;SDS011;11690;51.716;23.066;2022-08-18T01:22:13;19.98;;;13.45;;
23044;SDS011;11690;51.716;23.066;2022-08-18T01:24:45;19.58;;;12.95;;
23044;SDS011;11690;51.716;23.066;2022-08-18T01:27:30;19.80;;;12.63;;
23044;SDS011;11690;51.716;23.066;2022-08-18T01:30:01;15.77;;;13.35;;
23044;SDS011;11690;51.716;23.066;2022-08-18T01:32:36;20.40;;;12.93;;
23044;SDS011;11690;51.716;23.066;2022-08-18T01:35:04;18.83;;;14.02;;
23044;SDS011;11690;51.716;23.066;2022-08-18T01:37:34;19.83;;;14.68;;
23044;SDS011;11690;51.716;23.066;2022-08-18T01:40:03;16.88;;;12.85;;
23044;SDS011;11690;51.716;23.066;2022-08-18T01:42:52;18.65;;;12.73;;
23044;SDS011;11690;51.716;23.066;2022-08-18T01:45:20;15.25;;;13.10;;
23044;SDS011;11690;51.716;23.066;2022-08-18T01:47:47;23.27;;;13.30;;
23044;SDS011;11690;51.716;23.066;2022-08-18T01:50:16;18.10;;;12.55;;
23044;SDS011;11690;51.716;23.066;2022-08-18T01:52:43;15.63;;;12.93;;
23044;SDS011;11690;51.716;23.066;2022-08-18T01:55:10;15.48;;;13.27;;
23044;SDS011;11690;51.716;23.066;2022-08-18T01:57:40;18.05;;;13.35;;
23044;SDS011;11690;51.716;23.066;2022-08-18T02:00:11;17.60;;;13.32;;
23044;SDS011;11690;51.716;23.066;2022-08-18T02:02:40;19.25;;;13.95;;
23044;SDS011;11690;51.716;23.066;2022-08-18T02:05:09;17.58;;;13.38;;
23044;SDS011;11690;51.716;23.066;2022-08-18T02:07:39;18.00;;;13.90;;
23044;SDS011;11690;51.716;23.066;2022-08-18T02:10:08;16.42;;;11.93;;
23044;SDS011;11690;51.716;23.066;2022-08-18T02:12:42;17.38;;;12.70;;
23044;SDS011;11690;51.716;23.066;2022-08-18T02:15:09;16.75;;;12.38;;
23044;SDS011;11690;51.716;23.066;2022-08-18T02:17:42;19.52;;;10.80;;
23044;SDS011;11690;51.716;23.066;2022-08-18T02:20:11;16.88;;;11.48;;
23044;SDS011;11690;51.716;23.066;2022-08-18T02:22:40;16.45;;;11.43;;
23044;SDS011;11690;51.716;23.066;2022-08-18T02:25:07;13.10;;;11.70;;
23044;SDS011;11690;51.716;23.066;2022-08-18T02:27:35;12.82;;;10.60;;
23044;SDS011;11690;51.716;23.066;2022-08-18T02:30:03;15.27;;;10.82;;
23044;SDS011;11690;51.716;23.066;2022-08-18T02:32:33;21.40;;;12.32;;
23044;SDS011;11690;51.716;23.066;2022-08-18T02:35:00;14.95;;;11.38;;
23044;SDS011;11690;51.716;23.066;2022-08-18T02:37:27;18.70;;;12.68;;
23044;SDS011;11690;51.716;23.066;2022-08-18T02:39:56;14.88;;;11.82;;
23044;SDS011;11690;51.716;23.066;2022-08-18T02:42:24;17.20;;;11.55;;
23044;SDS011;11690;51.716;23.066;2022-08-18T02:44:51;17.25;;;11.77;;
23044;SDS011;11690;51.716;23.066;2022-08-18T02:47:21;21.88;;;13.50;;
23044;SDS011;11690;51.716;23.066;2022-08-18T02:49:48;17.25;;;13.00;;
23044;SDS011;11690;51.716;23.066;2022-08-18T02:52:15;20.05;;;12.95;;
23044;SDS011;11690;51.716;23.066;2022-08-18T02:54:42;19.23;;;13.45;;
23044;SDS011;11690;51.716;23.066;2022-08-18T02:57:10;18.73;;;14.52;;
23044;SDS011;11690;51.716;23.066;2022-08-18T02:59:38;20.15;;;13.52;;
23044;SDS011;11690;51.716;23.066;2022-08-18T03:02:07;19.35;;;13.60;;
23044;SDS011;11690;51.716;23.066;2022-08-18T03:04:35;15.75;;;12.90;;
23044;SDS011;11690;51.716;23.066;2022-08-18T03:07:03;13.38;;;11.88;;
23044;SDS011;11690;51.716;23.066;2022-08-18T03:09:31;18.90;;;13.30;;
23044;SDS011;11690;51.716;23.066;2022-08-18T03:11:58;17.23;;;12.25;;
23044;SDS011;11690;51.716;23.066;2022-08-18T03:14:26;16.77;;;12.50;;
23044;SDS011;11690;51.716;23.066;2022-08-18T03:16:53;16.67;;;12.30;;
23044;SDS011;11690;51.716;23.066;2022-08-18T03:19:22;16.02;;;12.65;;
23044;SDS011;11690;51.716;23.066;2022-08-18T03:21:50;13.65;;;11.18;;
23044;SDS011;11690;51.716;23.066;2022-08-18T03:24:18;14.88;;;10.40;;
23044;SDS011;11690;51.716;23.066;2022-08-18T03:26:49;17.08;;;12.00;;
23044;SDS011;11690;51.716;23.066;2022-08-18T03:29:17;12.10;;;10.77;;
23044;SDS011;11690;51.716;23.066;2022-08-18T03:31:44;13.15;;;11.52;;
23044;SDS011;11690;51.716;23.066;2022-08-18T03:34:11;17.80;;;11.63;;
23044;SDS011;11690;51.716;23.066;2022-08-18T03:36:38;12.98;;;10.90;;
23044;SDS011;11690;51.716;23.066;2022-08-18T03:39:08;16.83;;;11.10;;
23044;SDS011;11690;51.716;23.066;2022-08-18T03:41:39;19.50;;;10.90;;
23044;SDS011;11690;51.716;23.066;2022-08-18T03:44:25;17.92;;;12.13;;
23044;SDS011;11690;51.716;23.066;2022-08-18T03:46:53;15.55;;;10.43;;
23044;SDS011;11690;51.716;23.066;2022-08-18T03:49:20;15.75;;;10.93;;
23044;SDS011;11690;51.716;23.066;2022-08-18T03:51:47;19.20;;;11.57;;
23044;SDS011;11690;51.716;23.066;2022-08-18T03:54:17;15.27;;;12.55;;
23044;SDS011;11690;51.716;23.066;2022-08-18T03:56:45;17.17;;;13.27;;
23044;SDS011;11690;51.716;23.066;2022-08-18T03:59:14;18.88;;;13.48;;
23044;SDS011;11690;51.716;23.066;2022-08-18T04:01:46;24.55;;;14.38;;
23044;SDS011;11690;51.716;23.066;2022-08-18T04:04:20;17.70;;;14.40;;
23044;SDS011;11690;51.716;23.066;2022-08-18T04:06:53;20.23;;;14.30;;
23044;SDS011;11690;51.716;23.066;2022-08-18T04:09:25;20.77;;;14.10;;
23044;SDS011;11690;51.716;23.066;2022-08-18T04:11:54;21.23;;;14.73;;
23044;SDS011;11690;51.716;23.066;2022-08-18T04:14:23;20.10;;;14.40;;
23044;SDS011;11690;51.716;23.066;2022-08-18T04:16:51;19.77;;;13.57;;
23044;SDS011;11690;51.716;23.066;2022-08-18T04:19:18;19.48;;;14.15;;
23044;SDS011;11690;51.716;23.066;2022-08-18T04:21:52;22.77;;;15.45;;
23044;SDS011;11690;51.716;23.066;2022-08-18T04:24:19;23.40;;;15.27;;
23044;SDS011;11690;51.716;23.066;2022-08-18T04:26:47;19.08;;;14.73;;
23044;SDS011;11690;51.716;23.066;2022-08-18T04:29:15;18.85;;;14.73;;
23044;SDS011;11690;51.716;23.066;2022-08-18T04:31:43;20.40;;;15.68;;
23044;SDS011;11690;51.716;23.066;2022-08-18T04:34:10;19.08;;;14.88;;
23044;SDS011;11690;51.716;23.066;2022-08-18T04:36:39;21.40;;;15.73;;
23044;SDS011;11690;51.716;23.066;2022-08-18T04:39:08;19.13;;;15.73;;
23044;SDS011;11690;51.716;23.066;2022-08-18T04:41:37;20.60;;;15.10;;
23044;SDS011;11690;51.716;23.066;2022-08-18T04:44:07;20.17;;;15.30;;
23044;SDS011;11690;51.716;23.066;2022-08-18T04:46:36;21.50;;;15.82;;
23044;SDS011;11690;51.716;23.066;2022-08-18T04:49:08;22.60;;;15.60;;
23044;SDS011;11690;51.716;23.066;2022-08-18T04:51:39;23.23;;;16.58;;
23044;SDS011;11690;51.716;23.066;2022-08-18T04:54:27;18.20;;;14.93;;
23044;SDS011;11690;51.716;23.066;2022-08-18T04:56:54;24.00;;;15.90;;
23044;SDS011;11690;51.716;23.066;2022-08-18T04:59:21;20.83;;;15.32;;
23044;SDS011;11690;51.716;23.066;2022-08-18T05:01:48;21.65;;;16.75;;
23044;SDS011;11690;51.716;23.066;2022-08-18T05:04:16;21.25;;;15.65;;
23044;SDS011;11690;51.716;23.066;2022-08-18T05:06:43;21.85;;;16.70;;
23044;SDS011;11690;51.716;23.066;2022-08-18T05:09:11;23.30;;;16.02;;
23044;SDS011;11690;51.716;23.066;2022-08-18T05:11:48;20.05;;;16.25;;
23044;SDS011;11690;51.716;23.066;2022-08-18T05:14:16;26.13;;;16.13;;
23044;SDS011;11690;51.716;23.066;2022-08-18T05:16:43;23.55;;;16.77;;
23044;SDS011;11690;51.716;23.066;2022-08-18T05:19:15;18.60;;;15.55;;
23044;SDS011;11690;51.716;23.066;2022-08-18T05:21:49;17.75;;;15.85;;
23044;SDS011;11690;51.716;23.066;2022-08-18T05:24:18;20.83;;;15.98;;
23044;SDS011;11690;51.716;23.066;2022-08-18T05:26:47;22.70;;;17.67;;
23044;SDS011;11690;51.716;23.066;2022-08-18T05:29:14;26.73;;;17.55;;
23044;SDS011;11690;51.716;23.066;2022-08-18T05:31:45;21.90;;;16.77;;
23044;SDS011;11690;51.716;23.066;2022-08-18T05:34:14;22.80;;;17.83;;
23044;SDS011;11690;51.716;23.066;2022-08-18T05:44:25;21.98;;;16.95;;
23044;SDS011;11690;51.716;23.066;2022-08-18T05:46:54;26.13;;;16.92;;
23044;SDS011;11690;51.716;23.066;2022-08-18T05:49:23;32.63;;;15.95;;
23044;SDS011;11690;51.716;23.066;2022-08-18T05:51:52;20.75;;;16.27;;
23044;SDS011;11690;51.716;23.066;2022-08-18T05:54:21;22.13;;;16.35;;
23044;SDS011;11690;51.716;23.066;2022-08-18T05:57:13;18.73;;;15.77;;
23044;SDS011;11690;51.716;23.066;2022-08-18T05:59:43;18.92;;;15.63;;
23044;SDS011;11690;51.716;23.066;2022-08-18T06:02:31;19.92;;;14.90;;
23044;SDS011;11690;51.716;23.066;2022-08-18T06:05:08;16.55;;;14.85;;
23044;SDS011;11690;51.716;23.066;2022-08-18T06:10:07;20.33;;;15.65;;
23044;SDS011;11690;51.716;23.066;2022-08-18T06:12:45;22.73;;;15.25;;
23044;SDS011;11690;51.716;23.066;2022-08-18T06:20:43;18.70;;;13.75;;
23044;SDS011;11690;51.716;23.066;2022-08-18T06:26:18;18.15;;;13.40;;
23044;SDS011;11690;51.716;23.066;2022-08-18T06:31:49;18.42;;;12.93;;
23044;SDS011;11690;51.716;23.066;2022-08-18T06:37:16;18.40;;;12.60;;
23044;SDS011;11690;51.716;23.066;2022-08-18T06:40:23;20.38;;;12.25;;
23044;SDS011;11690;51.716;23.066;2022-08-18T06:42:50;21.38;;;12.90;;
23044;SDS011;11690;51.716;23.066;2022-08-18T06:45:17;15.85;;;11.15;;
23044;SDS011;11690;51.716;23.066;2022-08-18T06:47:48;18.65;;;12.13;;
23044;SDS011;11690;51.716;23.066;2022-08-18T06:50:35;13.85;;;11.02;;
23044;SDS011;11690;51.716;23.066;2022-08-18T06:53:15;18.23;;;11.88;;
23044;SDS011;11690;51.716;23.066;2022-08-18T06:55:54;14.77;;;11.75;;
23044;SDS011;11690;51.716;23.066;2022-08-18T06:58:24;14.55;;;10.50;;
23044;SDS011;11690;51.716;23.066;2022-08-18T07:01:00;15.82;;;10.68;;
23044;SDS011;11690;51.716;23.066;2022-08-18T07:08:40;21.30;;;11.10;;
23044;SDS011;11690;51.716;23.066;2022-08-18T07:11:14;18.92;;;10.75;;
23044;SDS011;11690;51.716;23.066;2022-08-18T07:13:46;13.48;;;10.65;;
23044;SDS011;11690;51.716;23.066;2022-08-18T07:16:35;18.67;;;11.48;;
23044;SDS011;11690;51.716;23.066;2022-08-18T07:19:29;14.07;;;10.82;;
23044;SDS011;11690;51.716;23.066;2022-08-18T07:22:02;18.27;;;12.05;;
23044;SDS011;11690;51.716;23.066;2022-08-18T07:24:33;15.30;;;11.00;;
23044;SDS011;11690;51.716;23.066;2022-08-18T07:27:14;14.88;;;11.38;;
23044;SDS011;11690;51.716;23.066;2022-08-18T07:35:18;14.38;;;10.48;;
23044;SDS011;11690;51.716;23.066;2022-08-18T07:37:58;15.27;;;9.82;;
23044;SDS011;11690;51.716;23.066;2022-08-18T07:40:52;13.57;;;9.35;;
23044;SDS011;11690;51.716;23.066;2022-08-18T07:43:24;13.80;;;9.75;;
23044;SDS011;11690;51.716;23.066;2022-08-18T07:46:03;11.55;;;9.00;;
23044;SDS011;11690;51.716;23.066;2022-08-18T07:48:33;14.52;;;9.80;;
23044;SDS011;11690;51.716;23.066;2022-08-18T07:51:09;13.43;;;9.88;;
23044;SDS011;11690;51.716;23.066;2022-08-18T07:59:24;14.32;;;9.52;;
23044;SDS011;11690;51.716;23.066;2022-08-18T08:04:41;12.32;;;8.73;;
23044;SDS011;11690;51.716;23.066;2022-08-18T08:07:54;11.13;;;8.48;;
23044;SDS011;11690;51.716;23.066;2022-08-18T08:16:15;16.05;;;8.07;;
23044;SDS011;11690;51.716;23.066;2022-08-18T08:18:58;12.25;;;8.23;;
23044;SDS011;11690;51.716;23.066;2022-08-18T08:21:41;12.63;;;7.95;;
23044;SDS011;11690;51.716;23.066;2022-08-18T08:24:40;14.07;;;8.60;;
23044;SDS011;11690;51.716;23.066;2022-08-18T08:27:34;15.35;;;8.10;;
23044;SDS011;11690;51.716;23.066;2022-08-18T08:30:11;11.50;;;7.00;;
23044;SDS011;11690;51.716;23.066;2022-08-18T08:32:45;13.95;;;7.72;;
23044;SDS011;11690;51.716;23.066;2022-08-18T08:38:21;15.10;;;7.90;;
23044;SDS011;11690;51.716;23.066;2022-08-18T08:41:31;10.70;;;7.72;;
23044;SDS011;11690;51.716;23.066;2022-08-18T08:46:45;12.48;;;7.40;;
23044;SDS011;11690;51.716;23.066;2022-08-18T08:49:22;8.63;;;7.10;;
23044;SDS011;11690;51.716;23.066;2022-08-18T08:51:54;14.80;;;9.23;;
23044;SDS011;11690;51.716;23.066;2022-08-18T08:57:10;9.10;;;7.15;;
23044;SDS011;11690;51.716;23.066;2022-08-18T08:59:39;11.68;;;7.15;;
23044;SDS011;11690;51.716;23.066;2022-08-18T09:05:16;10.35;;;7.40;;
23044;SDS011;11690;51.716;23.066;2022-08-18T09:10:40;9.73;;;6.25;;
23044;SDS011;11690;51.716;23.066;2022-08-18T09:13:40;11.27;;;7.40;;
23044;SDS011;11690;51.716;23.066;2022-08-18T09:25:01;11.02;;;6.97;;
23044;SDS011;11690;51.716;23.066;2022-08-18T09:27:43;14.23;;;6.35;;
23044;SDS011;11690;51.716;23.066;2022-08-18T09:30:36;7.05;;;5.50;;
23044;SDS011;11690;51.716;23.066;2022-08-18T09:38:55;12.05;;;5.95;;
23044;SDS011;11690;51.716;23.066;2022-08-18T09:41:48;10.00;;;5.80;;
23044;SDS011;11690;51.716;23.066;2022-08-18T09:47:12;13.77;;;6.75;;
23044;SDS011;11690;51.716;23.066;2022-08-18T09:55:35;10.35;;;5.07;;
23044;SDS011;11690;51.716;23.066;2022-08-18T09:58:15;11.85;;;5.80;;
23044;SDS011;11690;51.716;23.066;2022-08-18T10:06:44;7.50;;;5.63;;
23044;SDS011;11690;51.716;23.066;2022-08-18T10:12:24;10.45;;;5.78;;
23044;SDS011;11690;51.716;23.066;2022-08-18T10:14:57;11.10;;;5.70;;
23044;SDS011;11690;51.716;23.066;2022-08-18T10:17:58;7.82;;;5.55;;
23044;SDS011;11690;51.716;23.066;2022-08-18T10:20:41;11.18;;;6.00;;
23044;SDS011;11690;51.716;23.066;2022-08-18T10:50:56;6.88;;;5.60;;
23044;SDS011;11690;51.716;23.066;2022-08-18T11:01:55;9.90;;;5.60;;
23044;SDS011;11690;51.716;23.066;2022-08-18T11:04:44;10.05;;;5.90;;
23044;SDS011;11690;51.716;23.066;2022-08-18T11:07:28;10.02;;;5.90;;
23044;SDS011;11690;51.716;23.066;2022-08-18T11:10:00;7.60;;;5.68;;
23044;SDS011;11690;51.716;23.066;2022-08-18T11:16:01;9.70;;;5.63;;
23044;SDS011;11690;51.716;23.066;2022-08-18T11:26:55;8.65;;;5.15;;
23044;SDS011;11690;51.716;23.066;2022-08-18T11:29:41;8.88;;;5.05;;
23044;SDS011;11690;51.716;23.066;2022-08-18T11:34:51;14.52;;;5.35;;
23044;SDS011;11690;51.716;23.066;2022-08-18T11:40:37;8.32;;;5.35;;
23044;SDS011;11690;51.716;23.066;2022-08-18T11:43:27;10.88;;;5.18;;
23044;SDS011;11690;51.716;23.066;2022-08-18T11:46:12;12.38;;;5.40;;
23044;SDS011;11690;51.716;23.066;2022-08-18T11:48:47;11.07;;;5.35;;
23044;SDS011;11690;51.716;23.066;2022-08-18T11:51:21;10.65;;;5.90;;
23044;SDS011;11690;51.716;23.066;2022-08-18T11:56:45;13.02;;;5.70;;
23044;SDS011;11690;51.716;23.066;2022-08-18T12:02:15;7.95;;;4.72;;
23044;SDS011;11690;51.716;23.066;2022-08-18T12:04:43;9.18;;;5.30;;
23044;SDS011;11690;51.716;23.066;2022-08-18T12:07:16;12.93;;;5.40;;
23044;SDS011;11690;51.716;23.066;2022-08-18T12:13:10;10.57;;;5.28;;
23044;SDS011;11690;51.716;23.066;2022-08-18T12:15:58;10.40;;;6.10;;
23044;SDS011;11690;51.716;23.066;2022-08-18T12:18:34;8.50;;;5.07;;
23044;SDS011;11690;51.716;23.066;2022-08-18T12:21:00;12.57;;;5.57;;
23044;SDS011;11690;51.716;23.066;2022-08-18T12:23:29;13.73;;;5.55;;
23044;SDS011;11690;51.716;23.066;2022-08-18T12:26:18;13.27;;;5.57;;
23044;SDS011;11690;51.716;23.066;2022-08-18T12:29:04;15.35;;;5.45;;
23044;SDS011;11690;51.716;23.066;2022-08-18T12:31:37;7.07;;;5.18;;
23044;SDS011;11690;51.716;23.066;2022-08-18T12:34:14;9.68;;;5.55;;
23044;SDS011;11690;51.716;23.066;2022-08-18T12:37:06;9.63;;;4.80;;
23044;SDS011;11690;51.716;23.066;2022-08-18T12:39:54;11.40;;;5.00;;
23044;SDS011;11690;51.716;23.066;2022-08-18T12:42:23;6.32;;;4.82;;
23044;SDS011;11690;51.716;23.066;2022-08-18T12:44:52;11.38;;;5.60;;
23044;SDS011;11690;51.716;23.066;2022-08-18T12:47:23;7.72;;;4.80;;
23044;SDS011;11690;51.716;23.066;2022-08-18T12:49:56;12.27;;;4.72;;
23044;SDS011;11690;51.716;23.066;2022-08-18T12:52:27;11.02;;;5.93;;
23044;SDS011;11690;51.716;23.066;2022-08-18T12:54:54;13.85;;;6.47;;
23044;SDS011;11690;51.716;23.066;2022-08-18T12:57:22;13.55;;;5.32;;
23044;SDS011;11690;51.716;23.066;2022-08-18T13:00:11;8.95;;;5.15;;
23044;SDS011;11690;51.716;23.066;2022-08-18T13:02:45;10.05;;;5.10;;
23044;SDS011;11690;51.716;23.066;2022-08-18T13:05:13;8.07;;;5.35;;
23044;SDS011;11690;51.716;23.066;2022-08-18T13:07:40;7.60;;;4.70;;
23044;SDS011;11690;51.716;23.066;2022-08-18T13:10:08;8.63;;;5.00;;
23044;SDS011;11690;51.716;23.066;2022-08-18T13:12:55;10.23;;;4.80;;
23044;SDS011;11690;51.716;23.066;2022-08-18T13:15:28;10.98;;;4.60;;
23044;SDS011;11690;51.716;23.066;2022-08-18T13:17:55;10.75;;;4.20;;
23044;SDS011;11690;51.716;23.066;2022-08-18T13:20:22;10.80;;;4.85;;
23044;SDS011;11690;51.716;23.066;2022-08-18T13:22:51;15.07;;;5.43;;
23044;SDS011;11690;51.716;23.066;2022-08-18T13:25:19;6.60;;;5.00;;
23044;SDS011;11690;51.716;23.066;2022-08-18T13:27:58;8.48;;;4.95;;
23044;SDS011;11690;51.716;23.066;2022-08-18T13:30:27;12.18;;;5.00;;
23044;SDS011;11690;51.716;23.066;2022-08-18T13:33:00;7.53;;;5.10;;
23044;SDS011;11690;51.716;23.066;2022-08-18T13:35:49;10.55;;;5.07;;
23044;SDS011;11690;51.716;23.066;2022-08-18T13:38:20;9.68;;;5.22;;
23044;SDS011;11690;51.716;23.066;2022-08-18T13:40:53;12.70;;;5.88;;
23044;SDS011;11690;51.716;23.066;2022-08-18T13:43:31;8.95;;;5.25;;
23044;SDS011;11690;51.716;23.066;2022-08-18T13:46:08;11.40;;;5.15;;
23044;SDS011;11690;51.716;23.066;2022-08-18T13:48:37;10.60;;;5.10;;
23044;SDS011;11690;51.716;23.066;2022-08-18T13:51:08;13.00;;;5.15;;
23044;SDS011;11690;51.716;23.066;2022-08-18T13:53:36;9.95;;;5.68;;
23044;SDS011;11690;51.716;23.066;2022-08-18T13:56:23;9.25;;;5.88;;
23044;SDS011;11690;51.716;23.066;2022-08-18T13:58:57;9.02;;;5.65;;
23044;SDS011;11690;51.716;23.066;2022-08-18T14:01:24;12.82;;;5.18;;
23044;SDS011;11690;51.716;23.066;2022-08-18T14:04:12;10.95;;;5.40;;
23044;SDS011;11690;51.716;23.066;2022-08-18T14:06:45;10.95;;;4.90;;
23044;SDS011;11690;51.716;23.066;2022-08-18T14:09:24;12.07;;;5.47;;
23044;SDS011;11690;51.716;23.066;2022-08-18T14:12:03;8.18;;;5.32;;
23044;SDS011;11690;51.716;23.066;2022-08-18T14:14:42;7.18;;;4.97;;
23044;SDS011;11690;51.716;23.066;2022-08-18T14:17:09;9.70;;;5.55;;
23044;SDS011;11690;51.716;23.066;2022-08-18T14:19:36;9.90;;;5.78;;
23044;SDS011;11690;51.716;23.066;2022-08-18T14:22:22;7.85;;;5.03;;
23044;SDS011;11690;51.716;23.066;2022-08-18T14:25:08;7.40;;;5.63;;
23044;SDS011;11690;51.716;23.066;2022-08-18T14:27:54;10.50;;;5.38;;
23044;SDS011;11690;51.716;23.066;2022-08-18T14:30:22;9.30;;;5.13;;
23044;SDS011;11690;51.716;23.066;2022-08-18T14:32:49;12.32;;;5.93;;
23044;SDS011;11690;51.716;23.066;2022-08-18T14:35:19;9.20;;;4.55;;
23044;SDS011;11690;51.716;23.066;2022-08-18T14:38:07;7.00;;;4.72;;
23044;SDS011;11690;51.716;23.066;2022-08-18T14:40:36;7.93;;;5.10;;
23044;SDS011;11690;51.716;23.066;2022-08-18T14:43:09;9.63;;;5.03;;
23044;SDS011;11690;51.716;23.066;2022-08-18T14:45:40;8.52;;;5.05;;
23044;SDS011;11690;51.716;23.066;2022-08-18T14:48:16;8.35;;;5.00;;
23044;SDS011;11690;51.716;23.066;2022-08-18T14:50:45;13.15;;;4.72;;
23044;SDS011;11690;51.716;23.066;2022-08-18T14:53:18;10.20;;;5.60;;
23044;SDS011;11690;51.716;23.066;2022-08-18T14:55:47;9.77;;;5.38;;
23044;SDS011;11690;51.716;23.066;2022-08-18T14:58:18;11.02;;;5.47;;
23044;SDS011;11690;51.716;23.066;2022-08-18T15:00:46;11.27;;;5.63;;
23044;SDS011;11690;51.716;23.066;2022-08-18T15:03:20;9.77;;;5.50;;
23044;SDS011;11690;51.716;23.066;2022-08-18T15:05:58;9.77;;;5.22;;
23044;SDS011;11690;51.716;23.066;2022-08-18T15:08:30;10.93;;;5.72;;
23044;SDS011;11690;51.716;23.066;2022-08-18T15:11:01;9.75;;;4.97;;
23044;SDS011;11690;51.716;23.066;2022-08-18T15:13:29;14.90;;;6.55;;
23044;SDS011;11690;51.716;23.066;2022-08-18T15:15:56;17.50;;;5.28;;
23044;SDS011;11690;51.716;23.066;2022-08-18T15:18:28;12.80;;;6.22;;
23044;SDS011;11690;51.716;23.066;2022-08-18T15:20:57;13.30;;;5.55;;
23044;SDS011;11690;51.716;23.066;2022-08-18T15:24:00;10.45;;;5.70;;
23044;SDS011;11690;51.716;23.066;2022-08-18T15:26:50;10.68;;;5.03;;
23044;SDS011;11690;51.716;23.066;2022-08-18T15:29:29;13.25;;;5.70;;
23044;SDS011;11690;51.716;23.066;2022-08-18T15:31:58;9.05;;;5.47;;
23044;SDS011;11690;51.716;23.066;2022-08-18T15:34:36;13.35;;;5.80;;
23044;SDS011;11690;51.716;23.066;2022-08-18T15:37:16;31.23;;;11.38;;
23044;SDS011;11690;51.716;23.066;2022-08-18T15:39:48;16.55;;;7.00;;
23044;SDS011;11690;51.716;23.066;2022-08-18T15:42:21;10.98;;;6.10;;
23044;SDS011;11690;51.716;23.066;2022-08-18T15:44:49;12.57;;;6.43;;
23044;SDS011;11690;51.716;23.066;2022-08-18T15:47:19;12.90;;;5.32;;
23044;SDS011;11690;51.716;23.066;2022-08-18T15:49:51;13.90;;;6.30;;
23044;SDS011;11690;51.716;23.066;2022-08-18T15:52:21;16.42;;;6.38;;
23044;SDS011;11690;51.716;23.066;2022-08-18T15:54:52;10.60;;;5.93;;
23044;SDS011;11690;51.716;23.066;2022-08-18T15:57:28;25.27;;;7.80;;
23044;SDS011;11690;51.716;23.066;2022-08-18T16:00:06;32.53;;;10.48;;
23044;SDS011;11690;51.716;23.066;2022-08-18T16:02:38;15.82;;;5.65;;
23044;SDS011;11690;51.716;23.066;2022-08-18T16:05:10;32.40;;;9.57;;
23044;SDS011;11690;51.716;23.066;2022-08-18T16:07:39;21.05;;;7.93;;
23044;SDS011;11690;51.716;23.066;2022-08-18T16:10:11;34.90;;;8.90;;
23044;SDS011;11690;51.716;23.066;2022-08-18T16:12:39;14.85;;;6.90;;
23044;SDS011;11690;51.716;23.066;2022-08-18T16:15:15;10.48;;;6.78;;
23044;SDS011;11690;51.716;23.066;2022-08-18T16:17:47;15.68;;;6.75;;
23044;SDS011;11690;51.716;23.066;2022-08-18T16:20:16;15.30;;;6.47;;
23044;SDS011;11690;51.716;23.066;2022-08-18T16:22:44;19.73;;;7.05;;
23044;SDS011;11690;51.716;23.066;2022-08-18T16:25:12;17.73;;;6.22;;
23044;SDS011;11690;51.716;23.066;2022-08-18T16:27:39;13.52;;;6.90;;
23044;SDS011;11690;51.716;23.066;2022-08-18T16:30:12;13.95;;;6.57;;
23044;SDS011;11690;51.716;23.066;2022-08-18T16:32:42;18.73;;;6.25;;
23044;SDS011;11690;51.716;23.066;2022-08-18T16:35:10;34.75;;;8.48;;
23044;SDS011;11690;51.716;23.066;2022-08-18T16:37:38;24.65;;;7.07;;
23044;SDS011;11690;51.716;23.066;2022-08-18T16:40:06;9.32;;;5.82;;
23044;SDS011;11690;51.716;23.066;2022-08-18T16:42:34;21.58;;;6.72;;
23044;SDS011;11690;51.716;23.066;2022-08-18T16:45:02;21.92;;;6.53;;
23044;SDS011;11690;51.716;23.066;2022-08-18T16:47:30;21.63;;;6.63;;
23044;SDS011;11690;51.716;23.066;2022-08-18T16:50:00;27.65;;;6.65;;
23044;SDS011;11690;51.716;23.066;2022-08-18T16:52:27;16.67;;;6.40;;
23044;SDS011;11690;51.716;23.066;2022-08-18T16:54:54;16.13;;;6.25;;
23044;SDS011;11690;51.716;23.066;2022-08-18T16:57:23;16.13;;;6.78;;
23044;SDS011;11690;51.716;23.066;2022-08-18T17:00:22;18.25;;;6.80;;
23044;SDS011;11690;51.716;23.066;2022-08-18T17:03:09;13.30;;;6.95;;
23044;SDS011;11690;51.716;23.066;2022-08-18T17:06:15;9.10;;;6.35;;
23044;SDS011;11690;51.716;23.066;2022-08-18T17:08:43;14.68;;;6.75;;
23044;SDS011;11690;51.716;23.066;2022-08-18T17:11:11;16.90;;;7.20;;
23044;SDS011;11690;51.716;23.066;2022-08-18T17:13:41;9.32;;;6.80;;
23044;SDS011;11690;51.716;23.066;2022-08-18T17:16:08;13.05;;;6.72;;
23044;SDS011;11690;51.716;23.066;2022-08-18T17:18:36;17.73;;;7.38;;
23044;SDS011;11690;51.716;23.066;2022-08-18T17:21:04;20.13;;;7.18;;
23044;SDS011;11690;51.716;23.066;2022-08-18T17:23:33;12.60;;;6.95;;
23044;SDS011;11690;51.716;23.066;2022-08-18T17:26:05;12.77;;;7.20;;
23044;SDS011;11690;51.716;23.066;2022-08-18T17:28:35;12.23;;;6.90;;
23044;SDS011;11690;51.716;23.066;2022-08-18T17:31:19;17.42;;;7.10;;
23044;SDS011;11690;51.716;23.066;2022-08-18T17:33:48;13.02;;;6.68;;
23044;SDS011;11690;51.716;23.066;2022-08-18T17:36:22;13.82;;;7.50;;